Savoonga, AK

10:48 PM AKDT on July 27, 2014 (GMT -0800)
Savoonga (PASA) Elev 52 ft | 63.69 °N, 170.49 °W | Change Station

Current weather conditions updated 12 minutes ago

Overcast
Overcast
52 °F
Feels Like 52 °F
N
14
Wind Variable Wind from WSW

Tomorrow is forecast to be Cooler than today.

Today
High -- | Low -- °F
--% Chance of Precip.
Yesterday
High -- | Low -- °F
Precip. -- in
6:18 AM 0:35 AM
New Moon, 2% visible
Pressure 30.04 in
Visibility 10.0 miles
Clouds Overcast 600 ft
Dew Point 46 °F
Humidity 82%
Rainfall 0.00 in
Snow Depth Not available.
UV 0 out of 12
Pollen Not available.
Air Quality Not available.
Flu Activity Not available.
METAR PASA 280636Z AUTO 25012KT 10SM OVC006 11/08 A3004 RMK AO1

More Conditions Fewer Conditions

Pressure 30.04 in
Visibility 10.0 miles
Clouds Overcast 600 ft
Dew Point 46 °F
Humidity 82%
Rainfall 0.00 in
Snow Depth Not available.
UV 0 out of 12
Pollen Not available.
Air Quality Not available.
Flu Activity Not available.
METAR PASA 280636Z AUTO 25012KT 10SM OVC006 11/08 A3004 RMK AO1

More Conditions Fewer Conditions

10-Day Weather Forecast

Almanac

Astronomy

Jul. 27, 2014 Rise Set
Actual Time 6:18 AM AKDT 12:35 AM AKDT
Civil Twilight 4:39 AM AKDT 2:11 AM AKDT
Nautical Twilight Sun does not rise Sun does not rise
Astronomical Twilight Sun does not rise Sun does not rise
Moon 8:09 AM AKDT (7/27) 11:50 PM AKDT (7/27)
Length of Visible Light 21h 31m
Length of Day
18h 17m
Tomorrow will be 6m 10s shorter.
New Moon, 2% of the Moon is Illuminated
Jul 28
New Moon
Aug 3
First Quarter
Aug 10
Full
Aug 17
Last Quarter
Aug 25
New

Community

WunderPhotos

Upload Photos

1,738,290 photos uploaded!

Nearby

Snow Depth

Station Depth Elevation
Rocky Point 2 in 500 ft
Gobblers Knob 0 in 2030 ft
Coldfoot 0 in 1040 ft
Susitna Valley High 2 in 375 ft
Atigun Pass 0 in 4800 ft

Earthquake Activity

City Distance Mag. Time & Date
No recent earthquake activity has been reported nearby.
Minimum magnitude displayed is 2.5.

Coastal Water Temperatures

Place Temperature
No Stations Reporting

Nearby Weather Stations

There are no personal weather stations in this area.